sensor_id;sensor_type;location;lat;lon;timestamp;pressure;altitude;pressure_sealevel;temperature;humidity
39051;BME280;24805;55.852;37.644;2022-09-21T00:01:59;99291.34;;;9.63;73.23
39051;BME280;24805;55.852;37.644;2022-09-21T00:07:01;99322.00;;;10.03;71.62
39051;BME280;24805;55.852;37.644;2022-09-21T00:12:03;99322.13;;;9.64;73.12
39051;BME280;24805;55.852;37.644;2022-09-21T00:17:05;99317.25;;;9.53;73.62
39051;BME280;24805;55.852;37.644;2022-09-21T00:22:07;99319.06;;;9.52;74.24
39051;BME280;24805;55.852;37.644;2022-09-21T00:27:09;99318.97;;;9.91;72.56
39051;BME280;24805;55.852;37.644;2022-09-21T00:32:11;99320.47;;;9.63;74.05
39051;BME280;24805;55.852;37.644;2022-09-21T00:37:13;99321.91;;;9.96;72.22
39051;BME280;24805;55.852;37.644;2022-09-21T00:42:21;99335.38;;;9.64;73.88
39051;BME280;24805;55.852;37.644;2022-09-21T00:47:34;99324.59;;;9.65;74.47
39051;BME280;24805;55.852;37.644;2022-09-21T00:52:41;99329.97;;;9.57;74.17
39051;BME280;24805;55.852;37.644;2022-09-21T00:57:46;99329.50;;;9.54;74.49
39051;BME280;24805;55.852;37.644;2022-09-21T01:02:50;99309.41;;;9.37;74.29
39051;BME280;24805;55.852;37.644;2022-09-21T01:07:53;99330.66;;;9.51;73.94
39051;BME280;24805;55.852;37.644;2022-09-21T01:14:18;99327.91;;;9.67;74.17
39051;BME280;24805;55.852;37.644;2022-09-21T01:29:58;99337.25;;;9.55;74.21
39051;BME280;24805;55.852;37.644;2022-09-21T01:35:08;99330.59;;;9.82;72.85
39051;BME280;24805;55.852;37.644;2022-09-21T01:40:25;99331.66;;;9.50;74.30
39051;BME280;24805;55.852;37.644;2022-09-21T01:45:41;99329.53;;;9.46;74.36
39051;BME280;24805;55.852;37.644;2022-09-21T01:50:49;99333.06;;;9.38;74.29
39051;BME280;24805;55.852;37.644;2022-09-21T01:56:47;99331.19;;;9.47;74.31
39051;BME280;24805;55.852;37.644;2022-09-21T02:01:49;99337.53;;;9.38;74.96
39051;BME280;24805;55.852;37.644;2022-09-21T02:06:53;99338.41;;;9.30;74.76
39051;BME280;24805;55.852;37.644;2022-09-21T02:11:56;99340.72;;;9.33;75.18
39051;BME280;24805;55.852;37.644;2022-09-21T02:17:10;99347.75;;;9.41;75.03
39051;BME280;24805;55.852;37.644;2022-09-21T02:23:02;99341.88;;;9.30;74.81
39051;BME280;24805;55.852;37.644;2022-09-21T02:27:53;99353.53;;;9.44;74.77
39051;BME280;24805;55.852;37.644;2022-09-21T02:33:17;99356.28;;;9.28;74.32
39051;BME280;24805;55.852;37.644;2022-09-21T02:38:27;99351.97;;;9.27;74.40
39051;BME280;24805;55.852;37.644;2022-09-21T02:49:07;99356.09;;;9.29;75.36
39051;BME280;24805;55.852;37.644;2022-09-21T02:54:13;99353.66;;;9.20;74.66
39051;BME280;24805;55.852;37.644;2022-09-21T02:59:17;99349.91;;;9.14;74.52
39051;BME280;24805;55.852;37.644;2022-09-21T03:04:20;99353.22;;;9.08;74.48
39051;BME280;24805;55.852;37.644;2022-09-21T03:09:22;99356.19;;;9.13;74.24
39051;BME280;24805;55.852;37.644;2022-09-21T03:14:25;99323.31;;;8.99;74.53
39051;BME280;24805;55.852;37.644;2022-09-21T03:19:27;99353.97;;;9.56;73.28
39051;BME280;24805;55.852;37.644;2022-09-21T03:24:30;99353.97;;;9.25;74.18
39051;BME280;24805;55.852;37.644;2022-09-21T03:29:47;99338.50;;;9.14;73.92
39051;BME280;24805;55.852;37.644;2022-09-21T03:34:50;99353.28;;;9.31;74.05
39051;BME280;24805;55.852;37.644;2022-09-21T03:39:52;99352.63;;;9.83;73.14
39051;BME280;24805;55.852;37.644;2022-09-21T03:44:54;99355.63;;;9.57;73.10
39051;BME280;24805;55.852;37.644;2022-09-21T03:49:56;99351.31;;;10.01;72.73
39051;BME280;24805;55.852;37.644;2022-09-21T03:54:58;99344.75;;;9.75;72.50
39051;BME280;24805;55.852;37.644;2022-09-21T04:00:01;99344.38;;;10.23;72.31
39051;BME280;24805;55.852;37.644;2022-09-21T04:05:09;99353.31;;;9.99;72.51
39051;BME280;24805;55.852;37.644;2022-09-21T04:10:15;99340.78;;;10.16;72.47
39051;BME280;24805;55.852;37.644;2022-09-21T04:15:18;99353.09;;;10.32;71.58
39051;BME280;24805;55.852;37.644;2022-09-21T04:20:20;99340.50;;;10.49;71.13
39051;BME280;24805;55.852;37.644;2022-09-21T04:25:22;99344.16;;;10.62;70.48
39051;BME280;24805;55.852;37.644;2022-09-21T04:30:24;99356.66;;;11.27;70.45
39051;BME280;24805;55.852;37.644;2022-09-21T04:35:26;99347.75;;;10.99;69.75
39051;BME280;24805;55.852;37.644;2022-09-21T04:40:29;99354.22;;;11.11;69.80
39051;BME280;24805;55.852;37.644;2022-09-21T04:45:31;99354.03;;;11.27;70.07
39051;BME280;24805;55.852;37.644;2022-09-21T04:50:36;99355.44;;;11.45;69.94
39051;BME280;24805;55.852;37.644;2022-09-21T04:55:44;99362.75;;;11.57;69.82
39051;BME280;24805;55.852;37.644;2022-09-21T05:00:51;99359.69;;;11.75;69.12
39051;BME280;24805;55.852;37.644;2022-09-21T05:05:55;99367.53;;;11.83;68.34
39051;BME280;24805;55.852;37.644;2022-09-21T05:10:57;99358.94;;;12.02;67.81
39051;BME280;24805;55.852;37.644;2022-09-21T05:16:00;99365.44;;;12.21;67.20
39051;BME280;24805;55.852;37.644;2022-09-21T05:21:03;99375.28;;;12.49;66.74
39051;BME280;24805;55.852;37.644;2022-09-21T05:26:06;99372.53;;;12.63;66.28
39051;BME280;24805;55.852;37.644;2022-09-21T05:41:29;99360.56;;;13.69;64.60
39051;BME280;24805;55.852;37.644;2022-09-21T05:46:36;99357.97;;;14.22;63.31
39051;BME280;24805;55.852;37.644;2022-09-21T05:51:43;99361.84;;;14.92;61.15
39051;BME280;24805;55.852;37.644;2022-09-21T06:07:15;99352.38;;;17.10;55.89
39051;BME280;24805;55.852;37.644;2022-09-21T06:12:17;99355.19;;;17.63;54.15
39051;BME280;24805;55.852;37.644;2022-09-21T06:17:19;99357.84;;;18.11;52.88
39051;BME280;24805;55.852;37.644;2022-09-21T06:22:21;99356.88;;;18.71;51.54
39051;BME280;24805;55.852;37.644;2022-09-21T06:27:23;99362.09;;;19.12;50.17
39051;BME280;24805;55.852;37.644;2022-09-21T06:32:26;99358.16;;;19.55;48.97
39051;BME280;24805;55.852;37.644;2022-09-21T06:37:28;99368.47;;;20.03;47.55
39051;BME280;24805;55.852;37.644;2022-09-21T06:42:30;99367.59;;;20.31;46.46
39051;BME280;24805;55.852;37.644;2022-09-21T06:47:32;99357.53;;;21.32;45.09
39051;BME280;24805;55.852;37.644;2022-09-21T06:52:34;99353.53;;;22.79;41.85
39051;BME280;24805;55.852;37.644;2022-09-21T06:57:36;99349.13;;;24.18;39.29
39051;BME280;24805;55.852;37.644;2022-09-21T07:02:44;99363.28;;;25.56;37.60
39051;BME280;24805;55.852;37.644;2022-09-21T07:07:46;99362.28;;;25.96;35.12
39051;BME280;24805;55.852;37.644;2022-09-21T07:12:54;99353.91;;;26.21;34.32
39051;BME280;24805;55.852;37.644;2022-09-21T07:17:56;99358.63;;;25.61;34.47
39051;BME280;24805;55.852;37.644;2022-09-21T07:23:11;99355.66;;;24.07;37.76
39051;BME280;24805;55.852;37.644;2022-09-21T07:28:15;99366.34;;;22.62;39.65
39051;BME280;24805;55.852;37.644;2022-09-21T07:33:17;99361.19;;;21.96;40.58
39051;BME280;24805;55.852;37.644;2022-09-21T07:38:19;99365.84;;;21.52;41.37
39051;BME280;24805;55.852;37.644;2022-09-21T07:43:21;99369.16;;;21.16;42.31
39051;BME280;24805;55.852;37.644;2022-09-21T07:48:24;99368.34;;;20.60;43.70
39051;BME280;24805;55.852;37.644;2022-09-21T07:53:26;99368.81;;;20.90;43.71
39051;BME280;24805;55.852;37.644;2022-09-21T07:58:28;99366.03;;;21.24;42.93
39051;BME280;24805;55.852;37.644;2022-09-21T08:03:50;99358.09;;;21.34;42.89
39051;BME280;24805;55.852;37.644;2022-09-21T08:08:52;99362.91;;;21.32;42.73
39051;BME280;24805;55.852;37.644;2022-09-21T08:14:02;99359.56;;;21.47;43.18
39051;BME280;24805;55.852;37.644;2022-09-21T08:19:04;99361.84;;;21.55;42.55
39051;BME280;24805;55.852;37.644;2022-09-21T08:24:06;99357.28;;;21.34;42.61
39051;BME280;24805;55.852;37.644;2022-09-21T08:29:08;99362.31;;;20.70;43.76
39051;BME280;24805;55.852;37.644;2022-09-21T08:34:10;99352.16;;;20.10;45.29
39051;BME280;24805;55.852;37.644;2022-09-21T08:39:12;99345.31;;;19.74;45.43
39051;BME280;24805;55.852;37.644;2022-09-21T08:49:57;99350.59;;;19.69;46.56
39051;BME280;24805;55.852;37.644;2022-09-21T08:55:03;99343.78;;;19.78;46.32
39051;BME280;24805;55.852;37.644;2022-09-21T09:00:13;99343.91;;;20.67;45.64
39051;BME280;24805;55.852;37.644;2022-09-21T09:16:40;99327.28;;;22.80;42.11
39051;BME280;24805;55.852;37.644;2022-09-21T09:21:45;99325.75;;;22.99;39.10
39051;BME280;24805;55.852;37.644;2022-09-21T09:31:53;99324.06;;;22.83;38.50
39051;BME280;24805;55.852;37.644;2022-09-21T09:37:09;99323.38;;;22.23;39.56
39051;BME280;24805;55.852;37.644;2022-09-21T09:52:42;99314.81;;;21.07;41.16
39051;BME280;24805;55.852;37.644;2022-09-21T09:57:45;99302.75;;;21.58;38.57
39051;BME280;24805;55.852;37.644;2022-09-21T10:02:56;99310.56;;;22.09;38.09
39051;BME280;24805;55.852;37.644;2022-09-21T10:07:59;99294.19;;;22.25;37.26
39051;BME280;24805;55.852;37.644;2022-09-21T10:18:39;99301.16;;;23.00;37.29
39051;BME280;24805;55.852;37.644;2022-09-21T10:23:49;99306.56;;;22.53;36.29
39051;BME280;24805;55.852;37.644;2022-09-21T10:29:00;99306.97;;;23.40;35.95
39051;BME280;24805;55.852;37.644;2022-09-21T10:39:21;99288.97;;;24.06;33.92
39051;BME280;24805;55.852;37.644;2022-09-21T10:44:33;99285.31;;;22.72;35.69
39051;BME280;24805;55.852;37.644;2022-09-21T10:49:43;99299.22;;;21.85;37.32
39051;BME280;24805;55.852;37.644;2022-09-21T10:54:49;99291.84;;;21.48;37.59
39051;BME280;24805;55.852;37.644;2022-09-21T10:59:53;99302.00;;;21.19;37.59
39051;BME280;24805;55.852;37.644;2022-09-21T11:20:52;99297.72;;;19.91;40.57
39051;BME280;24805;55.852;37.644;2022-09-21T11:37:17;99286.63;;;18.90;43.02
39051;BME280;24805;55.852;37.644;2022-09-21T11:47:59;99283.41;;;18.65;43.70
39051;BME280;24805;55.852;37.644;2022-09-21T12:15:34;99247.84;;;18.86;43.63
39051;BME280;24805;55.852;37.644;2022-09-21T12:25:38;99261.31;;;18.28;44.54
39051;BME280;24805;55.852;37.644;2022-09-21T12:30:44;99246.09;;;17.75;45.19
39051;BME280;24805;55.852;37.644;2022-09-21T12:35:54;99260.88;;;17.66;46.05
39051;BME280;24805;55.852;37.644;2022-09-21T12:41:17;99255.94;;;17.63;45.82
39051;BME280;24805;55.852;37.644;2022-09-21T12:46:27;99253.53;;;17.32;46.38
39051;BME280;24805;55.852;37.644;2022-09-21T12:51:33;99266.28;;;17.18;46.86
39051;BME280;24805;55.852;37.644;2022-09-21T12:56:43;99264.88;;;17.15;47.21
39051;BME280;24805;55.852;37.644;2022-09-21T13:12:28;99262.97;;;16.86;47.84
39051;BME280;24805;55.852;37.644;2022-09-21T13:17:35;99266.41;;;16.75;48.24
39051;BME280;24805;55.852;37.644;2022-09-21T13:22:37;99264.66;;;16.80;48.77
39051;BME280;24805;55.852;37.644;2022-09-21T13:27:57;99267.63;;;17.09;49.16
39051;BME280;24805;55.852;37.644;2022-09-21T13:33:27;99259.16;;;17.12;48.38
39051;BME280;24805;55.852;37.644;2022-09-21T13:38:30;99251.50;;;17.27;48.83
39051;BME280;24805;55.852;37.644;2022-09-21T13:54:13;99245.28;;;17.45;48.50
39051;BME280;24805;55.852;37.644;2022-09-21T13:59:20;99239.09;;;17.44;48.83
39051;BME280;24805;55.852;37.644;2022-09-21T14:04:32;99242.81;;;17.43;48.22
39051;BME280;24805;55.852;37.644;2022-09-21T14:09:54;99237.81;;;17.35;48.47
39051;BME280;24805;55.852;37.644;2022-09-21T14:20:27;99219.25;;;17.04;49.62
39051;BME280;24805;55.852;37.644;2022-09-21T14:31:00;99226.34;;;16.98;49.50
39051;BME280;24805;55.852;37.644;2022-09-21T14:36:06;99237.38;;;16.90;49.86
39051;BME280;24805;55.852;37.644;2022-09-21T14:41:15;99234.69;;;16.72;50.57
39051;BME280;24805;55.852;37.644;2022-09-21T14:46:35;99238.91;;;16.61;50.48
39051;BME280;24805;55.852;37.644;2022-09-21T14:57:17;99234.69;;;16.10;51.98
39051;BME280;24805;55.852;37.644;2022-09-21T15:02:32;99255.41;;;15.97;52.27
39051;BME280;24805;55.852;37.644;2022-09-21T15:18:24;99255.94;;;15.42;54.46
39051;BME280;24805;55.852;37.644;2022-09-21T15:23:36;99248.00;;;15.36;54.72
39051;BME280;24805;55.852;37.644;2022-09-21T15:28:43;99262.63;;;15.27;55.27
39051;BME280;24805;55.852;37.644;2022-09-21T15:34:12;99270.25;;;15.23;55.40
39051;BME280;24805;55.852;37.644;2022-09-21T15:39:27;99274.31;;;15.32;55.51
39051;BME280;24805;55.852;37.644;2022-09-21T15:44:33;99269.63;;;15.21;56.20
39051;BME280;24805;55.852;37.644;2022-09-21T15:49:38;99272.00;;;15.04;56.27
39051;BME280;24805;55.852;37.644;2022-09-21T15:54:45;99277.38;;;14.98;57.22
39051;BME280;24805;55.852;37.644;2022-09-21T15:59:50;99272.69;;;14.87;57.36
39051;BME280;24805;55.852;37.644;2022-09-21T16:04:53;99273.56;;;14.74;57.93
39051;BME280;24805;55.852;37.644;2022-09-21T16:09:55;99290.59;;;14.73;57.97
39051;BME280;24805;55.852;37.644;2022-09-21T16:15:06;99300.03;;;14.75;58.30
39051;BME280;24805;55.852;37.644;2022-09-21T16:20:17;99294.81;;;15.00;56.07
39051;BME280;24805;55.852;37.644;2022-09-21T16:25:55;99301.94;;;14.48;58.67
39051;BME280;24805;55.852;37.644;2022-09-21T16:30:52;99302.75;;;14.42;59.47
39051;BME280;24805;55.852;37.644;2022-09-21T16:35:55;99312.63;;;14.35;59.62
39051;BME280;24805;55.852;37.644;2022-09-21T16:41:00;99313.44;;;14.36;59.60
39051;BME280;24805;55.852;37.644;2022-09-21T16:46:03;99314.25;;;14.30;60.11
39051;BME280;24805;55.852;37.644;2022-09-21T16:51:16;99306.66;;;14.33;60.02
39051;BME280;24805;55.852;37.644;2022-09-21T16:56:25;99310.34;;;14.19;59.67
39051;BME280;24805;55.852;37.644;2022-09-21T17:01:28;99322.28;;;14.17;59.96
39051;BME280;24805;55.852;37.644;2022-09-21T17:06:31;99314.47;;;14.15;60.34
39051;BME280;24805;55.852;37.644;2022-09-21T17:11:33;99326.16;;;14.14;60.11
39051;BME280;24805;55.852;37.644;2022-09-21T17:16:36;99305.22;;;14.04;60.25
39051;BME280;24805;55.852;37.644;2022-09-21T17:21:38;99340.50;;;14.20;60.34
39051;BME280;24805;55.852;37.644;2022-09-21T17:26:42;99338.47;;;14.15;60.11
39051;BME280;24805;55.852;37.644;2022-09-21T17:31:46;99345.88;;;14.13;60.41
39051;BME280;24805;55.852;37.644;2022-09-21T17:36:53;99363.28;;;14.09;60.34
39051;BME280;24805;55.852;37.644;2022-09-21T17:42:00;99363.06;;;13.91;57.06
39051;BME280;24805;55.852;37.644;2022-09-21T17:47:18;99367.16;;;13.73;57.08
39051;BME280;24805;55.852;37.644;2022-09-21T17:52:22;99363.91;;;13.30;57.51
39051;BME280;24805;55.852;37.644;2022-09-21T17:57:51;99372.53;;;13.32;57.39
39051;BME280;24805;55.852;37.644;2022-09-21T18:02:57;99372.97;;;13.01;59.71
39051;BME280;24805;55.852;37.644;2022-09-21T18:08:00;99371.63;;;12.77;63.55
39051;BME280;24805;55.852;37.644;2022-09-21T18:13:15;99363.97;;;12.68;65.81
39051;BME280;24805;55.852;37.644;2022-09-21T18:18:35;99359.91;;;12.44;66.87
39051;BME280;24805;55.852;37.644;2022-09-21T18:24:21;99360.25;;;12.34;67.21
39051;BME280;24805;55.852;37.644;2022-09-21T18:29:32;99358.91;;;12.24;70.50
39051;BME280;24805;55.852;37.644;2022-09-21T18:39:56;99359.91;;;12.44;71.60
39051;BME280;24805;55.852;37.644;2022-09-21T18:45:09;99356.47;;;12.50;71.35
39051;BME280;24805;55.852;37.644;2022-09-21T18:50:25;99352.69;;;12.66;71.19
39051;BME280;24805;55.852;37.644;2022-09-21T18:55:32;99351.59;;;12.60;71.58
39051;BME280;24805;55.852;37.644;2022-09-21T19:00:35;99354.53;;;12.65;71.85
39051;BME280;24805;55.852;37.644;2022-09-21T19:05:46;99360.97;;;12.77;71.52
39051;BME280;24805;55.852;37.644;2022-09-21T19:22:12;99365.97;;;13.00;71.86
39051;BME280;24805;55.852;37.644;2022-09-21T19:27:48;99363.56;;;13.05;71.69
39051;BME280;24805;55.852;37.644;2022-09-21T19:32:54;99373.56;;;12.97;70.77
39051;BME280;24805;55.852;37.644;2022-09-21T19:38:02;99382.97;;;12.93;70.82
39051;BME280;24805;55.852;37.644;2022-09-21T19:48:40;99381.75;;;12.95;71.45
39051;BME280;24805;55.852;37.644;2022-09-21T19:53:43;99380.25;;;12.86;70.83
39051;BME280;24805;55.852;37.644;2022-09-21T19:59:04;99366.03;;;12.72;69.84
39051;BME280;24805;55.852;37.644;2022-09-21T20:09:53;99379.66;;;13.25;69.83
39051;BME280;24805;55.852;37.644;2022-09-21T20:15:11;99372.69;;;12.90;69.85
39051;BME280;24805;55.852;37.644;2022-09-21T20:20:24;99367.75;;;12.87;70.01
39051;BME280;24805;55.852;37.644;2022-09-21T20:25:40;99365.28;;;12.85;70.06
39051;BME280;24805;55.852;37.644;2022-09-21T20:30:45;99370.09;;;12.68;70.12
39051;BME280;24805;55.852;37.644;2022-09-21T20:35:49;99369.09;;;12.69;69.72
39051;BME280;24805;55.852;37.644;2022-09-21T20:40:51;99362.38;;;12.73;69.94
39051;BME280;24805;55.852;37.644;2022-09-21T20:45:54;99360.13;;;12.77;70.20
39051;BME280;24805;55.852;37.644;2022-09-21T20:51:00;99364.47;;;12.85;70.40
39051;BME280;24805;55.852;37.644;2022-09-21T20:56:02;99353.19;;;12.83;70.34
39051;BME280;24805;55.852;37.644;2022-09-21T21:01:05;99348.31;;;13.27;69.52
39051;BME280;24805;55.852;37.644;2022-09-21T21:11:10;99336.13;;;12.70;69.76
39051;BME280;24805;55.852;37.644;2022-09-21T21:16:12;99334.06;;;12.66;69.72
39051;BME280;24805;55.852;37.644;2022-09-21T21:21:14;99324.03;;;13.09;69.76
39051;BME280;24805;55.852;37.644;2022-09-21T21:26:16;99336.09;;;12.64;69.81
39051;BME280;24805;55.852;37.644;2022-09-21T21:31:18;99337.72;;;12.58;70.86
39051;BME280;24805;55.852;37.644;2022-09-21T21:36:22;99344.66;;;12.59;70.00
39051;BME280;24805;55.852;37.644;2022-09-21T21:41:24;99336.31;;;13.03;69.90
39051;BME280;24805;55.852;37.644;2022-09-21T21:46:26;99344.44;;;12.61;70.33
39051;BME280;24805;55.852;37.644;2022-09-21T21:51:29;99337.47;;;12.53;70.25
39051;BME280;24805;55.852;37.644;2022-09-21T21:56:31;99339.28;;;12.53;70.70
39051;BME280;24805;55.852;37.644;2022-09-21T22:01:33;99347.56;;;12.99;70.15
39051;BME280;24805;55.852;37.644;2022-09-21T22:06:37;99354.09;;;12.62;70.24
39051;BME280;24805;55.852;37.644;2022-09-21T22:11:39;99340.94;;;12.54;70.67
39051;BME280;24805;55.852;37.644;2022-09-21T22:16:41;99348.78;;;12.96;69.55
39051;BME280;24805;55.852;37.644;2022-09-21T22:21:44;99345.06;;;12.56;70.20
39051;BME280;24805;55.852;37.644;2022-09-21T22:26:54;99328.97;;;12.43;70.80
39051;BME280;24805;55.852;37.644;2022-09-21T22:31:56;99342.84;;;13.01;70.26
39051;BME280;24805;55.852;37.644;2022-09-21T22:36:58;99343.69;;;12.67;70.26
39051;BME280;24805;55.852;37.644;2022-09-21T22:42:02;99347.13;;;12.61;70.42
39051;BME280;24805;55.852;37.644;2022-09-21T22:47:04;99344.06;;;12.64;70.43
39051;BME280;24805;55.852;37.644;2022-09-21T22:52:06;99323.97;;;12.55;70.36
39051;BME280;24805;55.852;37.644;2022-09-21T22:57:08;99340.25;;;13.14;69.94
39051;BME280;24805;55.852;37.644;2022-09-21T23:02:10;99330.81;;;12.70;70.13
39051;BME280;24805;55.852;37.644;2022-09-21T23:07:12;99332.16;;;12.60;69.75
39051;BME280;24805;55.852;37.644;2022-09-21T23:12:17;99312.19;;;12.42;69.90
39051;BME280;24805;55.852;37.644;2022-09-21T23:17:19;99333.44;;;12.98;69.59
39051;BME280;24805;55.852;37.644;2022-09-21T23:22:21;99333.41;;;12.57;70.34
39051;BME280;24805;55.852;37.644;2022-09-21T23:27:24;99332.34;;;12.52;70.47
39051;BME280;24805;55.852;37.644;2022-09-21T23:32:26;99327.84;;;12.52;69.70
39051;BME280;24805;55.852;37.644;2022-09-21T23:37:28;99320.03;;;12.51;69.77
39051;BME280;24805;55.852;37.644;2022-09-21T23:42:30;99328.84;;;12.51;70.20
39051;BME280;24805;55.852;37.644;2022-09-21T23:47:32;99320.94;;;12.99;69.64
39051;BME280;24805;55.852;37.644;2022-09-21T23:52:35;99322.97;;;12.62;69.99
39051;BME280;24805;55.852;37.644;2022-09-21T23:57:37;99298.56;;;12.52;70.01
